sensor_id;sensor_type;location;lat;lon;timestamp;P1;durP1;ratioP1;P2;durP2;ratioP2
17193;SDS011;8713;48.388;10.928;2023-01-29T07:30:35;5.00;;;3.33;;
17193;SDS011;8713;48.388;10.928;2023-01-29T07:32:05;5.75;;;3.65;;
17193;SDS011;8713;48.388;10.928;2023-01-29T07:33:35;6.63;;;3.65;;
17193;SDS011;8713;48.388;10.928;2023-01-29T07:35:05;5.90;;;3.83;;
17193;SDS011;8713;48.388;10.928;2023-01-29T07:36:35;5.75;;;3.42;;
17193;SDS011;8713;48.388;10.928;2023-01-29T07:38:05;5.38;;;3.80;;
17193;SDS011;8713;48.388;10.928;2023-01-29T07:39:36;7.38;;;4.07;;
17193;SDS011;8713;48.388;10.928;2023-01-29T07:41:06;7.32;;;4.38;;
17193;SDS011;8713;48.388;10.928;2023-01-29T07:42:37;6.75;;;4.20;;
17193;SDS011;8713;48.388;10.928;2023-01-29T07:44:07;7.63;;;4.35;;
17193;SDS011;8713;48.388;10.928;2023-01-29T07:45:37;6.38;;;4.15;;
17193;SDS011;8713;48.388;10.928;2023-01-29T07:47:07;7.10;;;4.03;;
17193;SDS011;8713;48.388;10.928;2023-01-29T07:48:37;7.10;;;4.32;;
17193;SDS011;8713;48.388;10.928;2023-01-29T07:50:07;6.55;;;4.07;;
17193;SDS011;8713;48.388;10.928;2023-01-29T07:51:38;6.30;;;3.53;;
17193;SDS011;8713;48.388;10.928;2023-01-29T07:53:08;5.85;;;3.70;;
17193;SDS011;8713;48.388;10.928;2023-01-29T07:54:44;7.82;;;4.47;;
17193;SDS011;8713;48.388;10.928;2023-01-29T07:56:13;6.25;;;4.18;;
17193;SDS011;8713;48.388;10.928;2023-01-29T07:57:43;6.75;;;4.00;;
17193;SDS011;8713;48.388;10.928;2023-01-29T07:59:13;5.47;;;3.45;;
17193;SDS011;8713;48.388;10.928;2023-01-29T08:00:42;6.60;;;4.00;;
17193;SDS011;8713;48.388;10.928;2023-01-29T08:02:12;9.70;;;4.80;;
17193;SDS011;8713;48.388;10.928;2023-01-29T08:03:41;8.13;;;4.70;;
17193;SDS011;8713;48.388;10.928;2023-01-29T08:05:11;6.72;;;4.15;;
17193;SDS011;8713;48.388;10.928;2023-01-29T08:06:40;6.55;;;4.57;;
17193;SDS011;8713;48.388;10.928;2023-01-29T08:08:10;5.57;;;4.00;;
17193;SDS011;8713;48.388;10.928;2023-01-29T08:09:40;7.05;;;3.80;;
17193;SDS011;8713;48.388;10.928;2023-01-29T08:11:10;6.50;;;4.25;;
17193;SDS011;8713;48.388;10.928;2023-01-29T08:12:39;7.93;;;5.13;;
17193;SDS011;8713;48.388;10.928;2023-01-29T08:14:09;6.43;;;4.10;;
17193;SDS011;8713;48.388;10.928;2023-01-29T08:15:41;5.55;;;3.65;;
17193;SDS011;8713;48.388;10.928;2023-01-29T08:17:13;5.20;;;3.42;;
17193;SDS011;8713;48.388;10.928;2023-01-29T08:18:43;6.28;;;3.28;;
17193;SDS011;8713;48.388;10.928;2023-01-29T08:20:15;4.47;;;3.10;;
17193;SDS011;8713;48.388;10.928;2023-01-29T08:21:45;5.85;;;3.67;;
17193;SDS011;8713;48.388;10.928;2023-01-29T08:23:15;5.00;;;3.60;;
17193;SDS011;8713;48.388;10.928;2023-01-29T08:24:45;6.75;;;3.92;;
17193;SDS011;8713;48.388;10.928;2023-01-29T08:26:14;7.15;;;4.05;;
17193;SDS011;8713;48.388;10.928;2023-01-29T08:27:44;6.45;;;3.70;;
17193;SDS011;8713;48.388;10.928;2023-01-29T08:29:13;5.47;;;3.47;;
17193;SDS011;8713;48.388;10.928;2023-01-29T08:30:43;5.95;;;3.60;;
17193;SDS011;8713;48.388;10.928;2023-01-29T08:32:13;7.13;;;3.92;;
17193;SDS011;8713;48.388;10.928;2023-01-29T08:33:42;5.38;;;3.45;;
17193;SDS011;8713;48.388;10.928;2023-01-29T08:35:12;5.80;;;4.30;;
17193;SDS011;8713;48.388;10.928;2023-01-29T08:36:42;5.57;;;3.75;;
17193;SDS011;8713;48.388;10.928;2023-01-29T08:38:11;6.88;;;3.70;;
17193;SDS011;8713;48.388;10.928;2023-01-29T08:39:41;5.55;;;3.50;;
17193;SDS011;8713;48.388;10.928;2023-01-29T08:41:11;6.38;;;3.80;;
17193;SDS011;8713;48.388;10.928;2023-01-29T08:42:41;6.57;;;3.83;;
17193;SDS011;8713;48.388;10.928;2023-01-29T08:44:10;7.13;;;3.47;;
17193;SDS011;8713;48.388;10.928;2023-01-29T08:45:40;6.00;;;4.25;;
17193;SDS011;8713;48.388;10.928;2023-01-29T08:47:11;5.75;;;4.18;;
17193;SDS011;8713;48.388;10.928;2023-01-29T08:48:41;6.40;;;3.78;;
17193;SDS011;8713;48.388;10.928;2023-01-29T08:50:10;6.85;;;3.58;;
17193;SDS011;8713;48.388;10.928;2023-01-29T08:51:40;4.95;;;3.05;;
17193;SDS011;8713;48.388;10.928;2023-01-29T08:53:09;4.30;;;3.13;;
17193;SDS011;8713;48.388;10.928;2023-01-29T08:54:39;4.95;;;3.30;;
17193;SDS011;8713;48.388;10.928;2023-01-29T08:56:09;5.85;;;2.88;;
17193;SDS011;8713;48.388;10.928;2023-01-29T08:57:38;4.10;;;2.50;;
17193;SDS011;8713;48.388;10.928;2023-01-29T08:59:08;5.22;;;2.97;;
17193;SDS011;8713;48.388;10.928;2023-01-29T09:00:38;5.00;;;3.40;;
17193;SDS011;8713;48.388;10.928;2023-01-29T09:02:08;5.20;;;3.72;;
17193;SDS011;8713;48.388;10.928;2023-01-29T09:03:39;5.32;;;3.65;;
17193;SDS011;8713;48.388;10.928;2023-01-29T09:05:11;5.07;;;3.47;;
17193;SDS011;8713;48.388;10.928;2023-01-29T09:06:41;4.90;;;3.17;;
17193;SDS011;8713;48.388;10.928;2023-01-29T09:08:10;5.65;;;3.05;;
17193;SDS011;8713;48.388;10.928;2023-01-29T09:09:40;3.88;;;2.80;;
17193;SDS011;8713;48.388;10.928;2023-01-29T09:11:09;5.30;;;3.30;;
17193;SDS011;8713;48.388;10.928;2023-01-29T09:12:39;4.07;;;2.95;;
17193;SDS011;8713;48.388;10.928;2023-01-29T09:14:09;5.82;;;3.58;;
17193;SDS011;8713;48.388;10.928;2023-01-29T09:15:40;5.22;;;3.05;;
17193;SDS011;8713;48.388;10.928;2023-01-29T09:17:10;4.68;;;2.78;;
17193;SDS011;8713;48.388;10.928;2023-01-29T09:18:39;4.82;;;3.03;;
17193;SDS011;8713;48.388;10.928;2023-01-29T09:20:09;4.95;;;3.15;;
17193;SDS011;8713;48.388;10.928;2023-01-29T09:21:39;4.32;;;3.00;;
17193;SDS011;8713;48.388;10.928;2023-01-29T09:23:09;5.90;;;3.08;;
17193;SDS011;8713;48.388;10.928;2023-01-29T09:24:39;4.78;;;2.65;;
17193;SDS011;8713;48.388;10.928;2023-01-29T09:26:09;4.45;;;3.05;;
17193;SDS011;8713;48.388;10.928;2023-01-29T09:27:38;5.10;;;3.10;;
17193;SDS011;8713;48.388;10.928;2023-01-29T09:29:09;5.93;;;3.58;;
17193;SDS011;8713;48.388;10.928;2023-01-29T09:30:38;4.57;;;3.08;;
17193;SDS011;8713;48.388;10.928;2023-01-29T09:32:08;4.70;;;2.95;;
17193;SDS011;8713;48.388;10.928;2023-01-29T09:33:38;5.30;;;3.00;;
17193;SDS011;8713;48.388;10.928;2023-01-29T09:35:07;4.28;;;3.00;;
17193;SDS011;8713;48.388;10.928;2023-01-29T09:36:37;5.20;;;3.17;;
17193;SDS011;8713;48.388;10.928;2023-01-29T09:38:07;5.50;;;3.50;;
17193;SDS011;8713;48.388;10.928;2023-01-29T09:39:38;5.03;;;3.40;;
17193;SDS011;8713;48.388;10.928;2023-01-29T09:43:54;3.60;;;2.85;;
17193;SDS011;8713;48.388;10.928;2023-01-29T09:45:27;5.32;;;3.47;;
17193;SDS011;8713;48.388;10.928;2023-01-29T09:46:58;5.35;;;3.70;;
17193;SDS011;8713;48.388;10.928;2023-01-29T09:48:29;4.97;;;3.72;;
17193;SDS011;8713;48.388;10.928;2023-01-29T09:50:02;5.80;;;4.00;;
17193;SDS011;8713;48.388;10.928;2023-01-29T09:51:53;6.65;;;3.70;;
17193;SDS011;8713;48.388;10.928;2023-01-29T09:53:33;4.97;;;3.58;;
17193;SDS011;8713;48.388;10.928;2023-01-29T09:56:55;4.80;;;3.42;;
17193;SDS011;8713;48.388;10.928;2023-01-29T09:58:30;6.05;;;2.97;;
17193;SDS011;8713;48.388;10.928;2023-01-29T10:00:01;7.60;;;4.65;;
17193;SDS011;8713;48.388;10.928;2023-01-29T10:05:12;4.90;;;3.42;;
17193;SDS011;8713;48.388;10.928;2023-01-29T10:09:20;3.25;;;2.25;;
17193;SDS011;8713;48.388;10.928;2023-01-29T10:13:14;6.40;;;3.03;;
17193;SDS011;8713;48.388;10.928;2023-01-29T10:15:01;6.05;;;3.03;;
17193;SDS011;8713;48.388;10.928;2023-01-29T10:17:05;8.27;;;3.05;;
17193;SDS011;8713;48.388;10.928;2023-01-29T10:20:56;8.75;;;2.90;;
17193;SDS011;8713;48.388;10.928;2023-01-29T10:23:11;4.40;;;2.50;;
17193;SDS011;8713;48.388;10.928;2023-01-29T10:24:51;3.33;;;2.17;;
17193;SDS011;8713;48.388;10.928;2023-01-29T10:26:23;4.70;;;2.78;;
17193;SDS011;8713;48.388;10.928;2023-01-29T10:27:56;3.78;;;2.13;;
17193;SDS011;8713;48.388;10.928;2023-01-29T10:29:26;4.63;;;2.25;;
17193;SDS011;8713;48.388;10.928;2023-01-29T10:30:59;7.22;;;2.75;;
17193;SDS011;8713;48.388;10.928;2023-01-29T10:32:33;3.63;;;2.47;;
17193;SDS011;8713;48.388;10.928;2023-01-29T10:34:13;3.88;;;2.63;;
17193;SDS011;8713;48.388;10.928;2023-01-29T10:35:51;3.75;;;2.40;;
17193;SDS011;8713;48.388;10.928;2023-01-29T10:37:26;5.60;;;2.65;;
17193;SDS011;8713;48.388;10.928;2023-01-29T10:39:08;4.70;;;3.45;;
17193;SDS011;8713;48.388;10.928;2023-01-29T10:42:40;4.97;;;2.45;;
17193;SDS011;8713;48.388;10.928;2023-01-29T10:48:54;5.43;;;3.38;;
17193;SDS011;8713;48.388;10.928;2023-01-29T10:53:00;8.75;;;4.57;;
17193;SDS011;8713;48.388;10.928;2023-01-29T10:56:42;7.30;;;4.72;;
17193;SDS011;8713;48.388;10.928;2023-01-29T10:58:29;8.30;;;4.13;;
17193;SDS011;8713;48.388;10.928;2023-01-29T11:00:23;7.20;;;4.05;;
17193;SDS011;8713;48.388;10.928;2023-01-29T11:01:57;6.35;;;3.83;;
17193;SDS011;8713;48.388;10.928;2023-01-29T11:03:29;7.30;;;3.92;;
17193;SDS011;8713;48.388;10.928;2023-01-29T11:05:00;6.18;;;2.78;;
17193;SDS011;8713;48.388;10.928;2023-01-29T11:06:31;5.22;;;2.95;;
17193;SDS011;8713;48.388;10.928;2023-01-29T11:08:04;4.22;;;2.60;;
17193;SDS011;8713;48.388;10.928;2023-01-29T11:10:06;3.33;;;2.35;;
17193;SDS011;8713;48.388;10.928;2023-01-29T11:11:49;5.25;;;1.95;;
17193;SDS011;8713;48.388;10.928;2023-01-29T11:13:28;4.82;;;3.00;;
17193;SDS011;8713;48.388;10.928;2023-01-29T11:16:40;6.15;;;3.22;;
17193;SDS011;8713;48.388;10.928;2023-01-29T11:18:13;7.78;;;3.85;;
17193;SDS011;8713;48.388;10.928;2023-01-29T11:19:44;5.68;;;3.13;;
17193;SDS011;8713;48.388;10.928;2023-01-29T11:21:16;4.35;;;3.03;;
17193;SDS011;8713;48.388;10.928;2023-01-29T11:22:52;5.70;;;3.17;;
17193;SDS011;8713;48.388;10.928;2023-01-29T11:24:23;4.95;;;2.65;;
17193;SDS011;8713;48.388;10.928;2023-01-29T11:25:54;5.78;;;2.70;;
17193;SDS011;8713;48.388;10.928;2023-01-29T11:27:25;3.83;;;2.28;;
17193;SDS011;8713;48.388;10.928;2023-01-29T11:28:57;3.90;;;2.33;;
17193;SDS011;8713;48.388;10.928;2023-01-29T11:30:29;4.00;;;2.47;;
17193;SDS011;8713;48.388;10.928;2023-01-29T11:32:02;4.35;;;3.30;;
17193;SDS011;8713;48.388;10.928;2023-01-29T11:33:34;5.03;;;2.70;;
17193;SDS011;8713;48.388;10.928;2023-01-29T11:36:40;5.00;;;3.22;;
17193;SDS011;8713;48.388;10.928;2023-01-29T11:39:49;5.28;;;2.70;;
17193;SDS011;8713;48.388;10.928;2023-01-29T11:41:19;3.38;;;2.70;;
17193;SDS011;8713;48.388;10.928;2023-01-29T11:42:50;3.92;;;2.88;;
17193;SDS011;8713;48.388;10.928;2023-01-29T11:44:26;4.10;;;2.90;;
17193;SDS011;8713;48.388;10.928;2023-01-29T11:46:02;4.90;;;3.17;;
17193;SDS011;8713;48.388;10.928;2023-01-29T11:47:33;4.10;;;3.35;;
17193;SDS011;8713;48.388;10.928;2023-01-29T11:49:03;5.35;;;3.17;;
17193;SDS011;8713;48.388;10.928;2023-01-29T11:50:32;6.53;;;4.28;;
17193;SDS011;8713;48.388;10.928;2023-01-29T11:52:03;6.57;;;3.15;;
17193;SDS011;8713;48.388;10.928;2023-01-29T11:55:16;7.75;;;5.80;;
17193;SDS011;8713;48.388;10.928;2023-01-29T11:56:50;6.45;;;5.30;;
17193;SDS011;8713;48.388;10.928;2023-01-29T11:58:23;7.82;;;4.38;;
17193;SDS011;8713;48.388;10.928;2023-01-29T11:59:58;4.97;;;2.83;;
17193;SDS011;8713;48.388;10.928;2023-01-29T12:01:39;5.88;;;3.97;;
17193;SDS011;8713;48.388;10.928;2023-01-29T12:05:00;3.83;;;2.60;;
17193;SDS011;8713;48.388;10.928;2023-01-29T12:06:35;4.95;;;3.03;;
17193;SDS011;8713;48.388;10.928;2023-01-29T12:08:15;9.02;;;5.20;;
17193;SDS011;8713;48.388;10.928;2023-01-29T12:10:28;9.65;;;5.65;;
17193;SDS011;8713;48.388;10.928;2023-01-29T12:12:17;6.57;;;3.47;;
17193;SDS011;8713;48.388;10.928;2023-01-29T12:14:00;4.80;;;2.83;;
17193;SDS011;8713;48.388;10.928;2023-01-29T12:15:34;5.35;;;3.17;;
17193;SDS011;8713;48.388;10.928;2023-01-29T12:17:12;5.10;;;3.55;;
17193;SDS011;8713;48.388;10.928;2023-01-29T12:18:49;4.68;;;2.88;;
17193;SDS011;8713;48.388;10.928;2023-01-29T12:20:26;5.53;;;3.88;;
17193;SDS011;8713;48.388;10.928;2023-01-29T12:22:07;4.68;;;3.08;;
17193;SDS011;8713;48.388;10.928;2023-01-29T12:23:51;5.70;;;3.35;;
17193;SDS011;8713;48.388;10.928;2023-01-29T12:25:40;6.85;;;3.33;;
17193;SDS011;8713;48.388;10.928;2023-01-29T12:27:27;4.45;;;3.25;;
17193;SDS011;8713;48.388;10.928;2023-01-29T12:29:30;6.18;;;3.78;;
17193;SDS011;8713;48.388;10.928;2023-01-29T12:31:21;6.22;;;3.92;;
17193;SDS011;8713;48.388;10.928;2023-01-29T12:33:12;3.80;;;2.92;;
17193;SDS011;8713;48.388;10.928;2023-01-29T12:35:11;6.40;;;4.95;;
17193;SDS011;8713;48.388;10.928;2023-01-29T12:37:04;7.85;;;5.40;;
17193;SDS011;8713;48.388;10.928;2023-01-29T12:38:40;7.05;;;5.53;;
17193;SDS011;8713;48.388;10.928;2023-01-29T12:40:13;12.27;;;8.55;;
17193;SDS011;8713;48.388;10.928;2023-01-29T12:41:58;10.15;;;6.40;;
17193;SDS011;8713;48.388;10.928;2023-01-29T12:43:34;7.65;;;5.95;;
17193;SDS011;8713;48.388;10.928;2023-01-29T12:45:20;7.80;;;5.72;;
17193;SDS011;8713;48.388;10.928;2023-01-29T12:46:53;6.75;;;5.47;;
17193;SDS011;8713;48.388;10.928;2023-01-29T12:48:26;7.28;;;5.25;;
17193;SDS011;8713;48.388;10.928;2023-01-29T12:50:34;7.47;;;5.57;;
17193;SDS011;8713;48.388;10.928;2023-01-29T12:53:38;7.60;;;5.72;;
17193;SDS011;8713;48.388;10.928;2023-01-29T12:55:38;8.07;;;4.80;;
17193;SDS011;8713;48.388;10.928;2023-01-29T12:57:22;6.82;;;4.28;;
17193;SDS011;8713;48.388;10.928;2023-01-29T13:01:15;6.55;;;4.05;;
17193;SDS011;8713;48.388;10.928;2023-01-29T13:02:58;6.60;;;3.80;;
17193;SDS011;8713;48.388;10.928;2023-01-29T13:07:01;7.03;;;3.78;;
17193;SDS011;8713;48.388;10.928;2023-01-29T13:08:46;1.77;;;1.45;;
17193;SDS011;8713;48.388;10.928;2023-01-29T13:10:20;3.60;;;2.25;;
17193;SDS011;8713;48.388;10.928;2023-01-29T13:11:55;7.60;;;4.57;;
17193;SDS011;8713;48.388;10.928;2023-01-29T13:13:33;7.03;;;5.20;;
17193;SDS011;8713;48.388;10.928;2023-01-29T13:15:21;8.05;;;5.45;;
17193;SDS011;8713;48.388;10.928;2023-01-29T13:17:08;6.70;;;4.82;;
17193;SDS011;8713;48.388;10.928;2023-01-29T13:19:04;7.75;;;4.63;;
17193;SDS011;8713;48.388;10.928;2023-01-29T13:20:39;6.50;;;4.15;;
17193;SDS011;8713;48.388;10.928;2023-01-29T13:22:17;8.25;;;5.10;;
17193;SDS011;8713;48.388;10.928;2023-01-29T13:23:54;6.55;;;4.55;;
17193;SDS011;8713;48.388;10.928;2023-01-29T13:25:28;11.25;;;6.38;;
17193;SDS011;8713;48.388;10.928;2023-01-29T13:26:57;8.48;;;4.97;;
17193;SDS011;8713;48.388;10.928;2023-01-29T13:28:27;14.60;;;6.15;;
17193;SDS011;8713;48.388;10.928;2023-01-29T13:29:57;10.45;;;5.05;;
17193;SDS011;8713;48.388;10.928;2023-01-29T13:31:28;11.07;;;5.25;;
17193;SDS011;8713;48.388;10.928;2023-01-29T13:33:00;14.88;;;6.30;;
17193;SDS011;8713;48.388;10.928;2023-01-29T13:34:44;7.50;;;4.97;;
17193;SDS011;8713;48.388;10.928;2023-01-29T13:36:17;8.50;;;5.15;;
17193;SDS011;8713;48.388;10.928;2023-01-29T13:37:52;7.57;;;5.30;;
17193;SDS011;8713;48.388;10.928;2023-01-29T13:39:26;7.53;;;5.28;;
17193;SDS011;8713;48.388;10.928;2023-01-29T13:41:02;9.40;;;5.40;;
17193;SDS011;8713;48.388;10.928;2023-01-29T13:42:36;8.52;;;6.72;;
17193;SDS011;8713;48.388;10.928;2023-01-29T13:44:20;7.47;;;5.60;;
17193;SDS011;8713;48.388;10.928;2023-01-29T13:45:54;6.63;;;5.13;;
17193;SDS011;8713;48.388;10.928;2023-01-29T13:47:25;7.05;;;5.30;;
17193;SDS011;8713;48.388;10.928;2023-01-29T13:48:57;8.95;;;5.50;;
17193;SDS011;8713;48.388;10.928;2023-01-29T13:50:31;9.10;;;5.47;;
17193;SDS011;8713;48.388;10.928;2023-01-29T13:54:15;7.40;;;5.40;;
17193;SDS011;8713;48.388;10.928;2023-01-29T13:55:46;7.00;;;5.00;;
17193;SDS011;8713;48.388;10.928;2023-01-29T13:57:32;6.22;;;4.40;;
17193;SDS011;8713;48.388;10.928;2023-01-29T13:59:20;7.20;;;4.72;;
17193;SDS011;8713;48.388;10.928;2023-01-29T14:01:13;8.70;;;5.03;;
17193;SDS011;8713;48.388;10.928;2023-01-29T14:02:43;7.50;;;4.90;;
17193;SDS011;8713;48.388;10.928;2023-01-29T14:07:38;8.57;;;5.90;;
17193;SDS011;8713;48.388;10.928;2023-01-29T14:12:41;9.40;;;6.53;;
17193;SDS011;8713;48.388;10.928;2023-01-29T14:14:48;9.18;;;6.13;;
17193;SDS011;8713;48.388;10.928;2023-01-29T14:16:31;9.60;;;6.25;;
17193;SDS011;8713;48.388;10.928;2023-01-29T14:18:13;8.30;;;4.40;;
17193;SDS011;8713;48.388;10.928;2023-01-29T14:19:56;8.15;;;4.97;;
17193;SDS011;8713;48.388;10.928;2023-01-29T14:21:31;7.55;;;4.95;;
17193;SDS011;8713;48.388;10.928;2023-01-29T14:23:03;7.38;;;4.90;;
17193;SDS011;8713;48.388;10.928;2023-01-29T14:24:33;5.70;;;3.78;;
17193;SDS011;8713;48.388;10.928;2023-01-29T14:26:03;8.68;;;5.10;;
17193;SDS011;8713;48.388;10.928;2023-01-29T14:27:34;8.32;;;4.75;;
17193;SDS011;8713;48.388;10.928;2023-01-29T14:29:16;8.50;;;4.80;;
17193;SDS011;8713;48.388;10.928;2023-01-29T14:30:54;6.72;;;4.60;;
17193;SDS011;8713;48.388;10.928;2023-01-29T14:32:23;8.30;;;4.78;;
17193;SDS011;8713;48.388;10.928;2023-01-29T14:33:58;6.25;;;4.20;;
17193;SDS011;8713;48.388;10.928;2023-01-29T14:35:30;9.13;;;3.83;;
17193;SDS011;8713;48.388;10.928;2023-01-29T14:37:03;7.50;;;4.63;;
17193;SDS011;8713;48.388;10.928;2023-01-29T14:38:45;9.18;;;4.13;;
17193;SDS011;8713;48.388;10.928;2023-01-29T14:41:46;9.55;;;5.22;;
17193;SDS011;8713;48.388;10.928;2023-01-29T14:43:16;6.72;;;4.78;;
17193;SDS011;8713;48.388;10.928;2023-01-29T14:46:56;5.63;;;3.30;;
17193;SDS011;8713;48.388;10.928;2023-01-29T14:48:38;12.52;;;7.00;;
17193;SDS011;8713;48.388;10.928;2023-01-29T14:52:01;10.40;;;5.97;;
17193;SDS011;8713;48.388;10.928;2023-01-29T14:57:11;8.10;;;4.88;;
17193;SDS011;8713;48.388;10.928;2023-01-29T15:00:50;7.78;;;5.00;;
17193;SDS011;8713;48.388;10.928;2023-01-29T15:02:26;7.78;;;4.60;;
17193;SDS011;8713;48.388;10.928;2023-01-29T15:05:47;9.55;;;6.47;;
17193;SDS011;8713;48.388;10.928;2023-01-29T15:07:22;9.00;;;5.45;;
17193;SDS011;8713;48.388;10.928;2023-01-29T15:09:03;9.45;;;5.22;;
17193;SDS011;8713;48.388;10.928;2023-01-29T15:10:41;8.77;;;5.40;;
17193;SDS011;8713;48.388;10.928;2023-01-29T15:12:19;7.28;;;4.65;;
17193;SDS011;8713;48.388;10.928;2023-01-29T15:13:59;8.50;;;4.95;;
17193;SDS011;8713;48.388;10.928;2023-01-29T15:17:32;7.47;;;3.30;;
17193;SDS011;8713;48.388;10.928;2023-01-29T15:19:28;6.72;;;4.05;;
17193;SDS011;8713;48.388;10.928;2023-01-29T15:21:15;8.07;;;3.60;;
17193;SDS011;8713;48.388;10.928;2023-01-29T15:22:46;6.20;;;4.22;;
17193;SDS011;8713;48.388;10.928;2023-01-29T15:24:16;7.45;;;4.10;;
17193;SDS011;8713;48.388;10.928;2023-01-29T15:25:47;6.03;;;4.25;;
17193;SDS011;8713;48.388;10.928;2023-01-29T15:27:19;9.75;;;4.97;;
17193;SDS011;8713;48.388;10.928;2023-01-29T15:28:56;6.45;;;3.97;;
17193;SDS011;8713;48.388;10.928;2023-01-29T15:30:31;7.85;;;4.20;;
17193;SDS011;8713;48.388;10.928;2023-01-29T15:32:03;7.30;;;4.72;;
17193;SDS011;8713;48.388;10.928;2023-01-29T15:33:33;9.70;;;5.25;;
17193;SDS011;8713;48.388;10.928;2023-01-29T15:35:10;6.65;;;5.32;;
17193;SDS011;8713;48.388;10.928;2023-01-29T15:36:56;8.70;;;5.20;;
17193;SDS011;8713;48.388;10.928;2023-01-29T15:38:26;6.20;;;4.18;;
17193;SDS011;8713;48.388;10.928;2023-01-29T15:39:58;8.45;;;4.60;;
17193;SDS011;8713;48.388;10.928;2023-01-29T15:41:28;8.63;;;4.68;;
17193;SDS011;8713;48.388;10.928;2023-01-29T15:42:58;9.02;;;5.72;;
17193;SDS011;8713;48.388;10.928;2023-01-29T15:44:28;6.22;;;4.00;;
17193;SDS011;8713;48.388;10.928;2023-01-29T15:45:59;10.25;;;5.32;;
17193;SDS011;8713;48.388;10.928;2023-01-29T15:47:32;10.88;;;6.15;;
17193;SDS011;8713;48.388;10.928;2023-01-29T15:49:09;10.80;;;5.80;;
17193;SDS011;8713;48.388;10.928;2023-01-29T15:50:45;7.68;;;5.20;;
17193;SDS011;8713;48.388;10.928;2023-01-29T15:52:20;10.75;;;5.68;;
17193;SDS011;8713;48.388;10.928;2023-01-29T15:55:32;9.45;;;5.32;;
17193;SDS011;8713;48.388;10.928;2023-01-29T15:57:01;9.23;;;4.88;;
17193;SDS011;8713;48.388;10.928;2023-01-29T15:58:31;8.85;;;5.13;;
17193;SDS011;8713;48.388;10.928;2023-01-29T16:00:02;8.85;;;5.22;;
17193;SDS011;8713;48.388;10.928;2023-01-29T16:01:39;7.03;;;4.07;;
17193;SDS011;8713;48.388;10.928;2023-01-29T16:03:13;8.73;;;5.20;;
17193;SDS011;8713;48.388;10.928;2023-01-29T16:04:43;8.00;;;4.63;;
17193;SDS011;8713;48.388;10.928;2023-01-29T16:06:13;8.38;;;4.85;;
17193;SDS011;8713;48.388;10.928;2023-01-29T16:07:43;10.98;;;5.25;;
17193;SDS011;8713;48.388;10.928;2023-01-29T16:09:19;9.80;;;5.07;;
17193;SDS011;8713;48.388;10.928;2023-01-29T16:10:57;7.85;;;4.88;;
17193;SDS011;8713;48.388;10.928;2023-01-29T16:12:30;9.60;;;4.90;;
17193;SDS011;8713;48.388;10.928;2023-01-29T16:14:01;8.52;;;4.95;;
17193;SDS011;8713;48.388;10.928;2023-01-29T16:15:32;9.07;;;5.78;;
17193;SDS011;8713;48.388;10.928;2023-01-29T16:18:55;9.68;;;4.53;;
17193;SDS011;8713;48.388;10.928;2023-01-29T16:20:33;11.40;;;6.68;;
17193;SDS011;8713;48.388;10.928;2023-01-29T16:22:14;6.60;;;4.50;;
17193;SDS011;8713;48.388;10.928;2023-01-29T16:23:47;9.68;;;4.60;;
17193;SDS011;8713;48.388;10.928;2023-01-29T16:25:19;13.65;;;7.30;;
17193;SDS011;8713;48.388;10.928;2023-01-29T16:26:50;20.98;;;9.23;;
17193;SDS011;8713;48.388;10.928;2023-01-29T16:28:21;17.27;;;8.52;;
17193;SDS011;8713;48.388;10.928;2023-01-29T16:29:51;11.35;;;6.90;;
17193;SDS011;8713;48.388;10.928;2023-01-29T16:31:25;9.07;;;5.70;;
17193;SDS011;8713;48.388;10.928;2023-01-29T16:33:00;9.90;;;6.90;;
17193;SDS011;8713;48.388;10.928;2023-01-29T16:34:35;8.05;;;5.60;;
17193;SDS011;8713;48.388;10.928;2023-01-29T16:36:17;10.10;;;5.65;;
17193;SDS011;8713;48.388;10.928;2023-01-29T16:37:52;9.93;;;6.40;;
17193;SDS011;8713;48.388;10.928;2023-01-29T16:39:35;8.73;;;5.40;;
17193;SDS011;8713;48.388;10.928;2023-01-29T16:42:49;9.43;;;5.50;;
17193;SDS011;8713;48.388;10.928;2023-01-29T16:45:02;10.05;;;5.75;;
17193;SDS011;8713;48.388;10.928;2023-01-29T16:46:37;8.73;;;5.07;;
17193;SDS011;8713;48.388;10.928;2023-01-29T16:48:23;9.88;;;6.38;;
17193;SDS011;8713;48.388;10.928;2023-01-29T16:50:38;10.93;;;6.35;;
17193;SDS011;8713;48.388;10.928;2023-01-29T16:55:35;8.98;;;5.90;;
17193;SDS011;8713;48.388;10.928;2023-01-29T16:57:19;8.52;;;5.30;;
17193;SDS011;8713;48.388;10.928;2023-01-29T16:58:52;9.30;;;5.90;;
17193;SDS011;8713;48.388;10.928;2023-01-29T17:00:24;10.05;;;6.47;;
17193;SDS011;8713;48.388;10.928;2023-01-29T17:01:55;9.15;;;5.10;;
17193;SDS011;8713;48.388;10.928;2023-01-29T17:03:25;10.70;;;6.38;;
17193;SDS011;8713;48.388;10.928;2023-01-29T17:04:57;9.23;;;5.47;;
17193;SDS011;8713;48.388;10.928;2023-01-29T17:06:32;9.07;;;6.13;;
17193;SDS011;8713;48.388;10.928;2023-01-29T17:08:02;11.85;;;6.28;;
17193;SDS011;8713;48.388;10.928;2023-01-29T17:09:34;12.63;;;7.07;;
17193;SDS011;8713;48.388;10.928;2023-01-29T17:11:05;12.00;;;6.80;;
17193;SDS011;8713;48.388;10.928;2023-01-29T17:12:35;10.65;;;7.43;;
17193;SDS011;8713;48.388;10.928;2023-01-29T17:14:06;9.45;;;6.70;;
17193;SDS011;8713;48.388;10.928;2023-01-29T17:17:13;10.43;;;6.30;;
17193;SDS011;8713;48.388;10.928;2023-01-29T17:18:43;10.10;;;6.20;;
17193;SDS011;8713;48.388;10.928;2023-01-29T17:20:14;10.20;;;5.25;;
17193;SDS011;8713;48.388;10.928;2023-01-29T17:21:45;7.63;;;5.03;;
17193;SDS011;8713;48.388;10.928;2023-01-29T17:23:15;10.48;;;6.40;;
17193;SDS011;8713;48.388;10.928;2023-01-29T17:24:44;9.88;;;6.50;;
17193;SDS011;8713;48.388;10.928;2023-01-29T17:26:14;8.70;;;5.10;;
17193;SDS011;8713;48.388;10.928;2023-01-29T17:27:43;10.00;;;5.82;;
17193;SDS011;8713;48.388;10.928;2023-01-29T17:29:29;11.88;;;7.15;;
17193;SDS011;8713;48.388;10.928;2023-01-29T17:30:59;12.15;;;8.23;;
17193;SDS011;8713;48.388;10.928;2023-01-29T17:32:29;11.83;;;8.43;;
17193;SDS011;8713;48.388;10.928;2023-01-29T17:33:59;13.77;;;9.13;;
17193;SDS011;8713;48.388;10.928;2023-01-29T17:35:28;14.00;;;9.00;;
17193;SDS011;8713;48.388;10.928;2023-01-29T17:36:57;12.45;;;8.63;;
17193;SDS011;8713;48.388;10.928;2023-01-29T17:38:27;14.95;;;9.00;;
17193;SDS011;8713;48.388;10.928;2023-01-29T17:39:56;13.63;;;9.13;;
17193;SDS011;8713;48.388;10.928;2023-01-29T17:41:27;15.00;;;9.77;;
17193;SDS011;8713;48.388;10.928;2023-01-29T17:42:58;15.07;;;9.18;;
17193;SDS011;8713;48.388;10.928;2023-01-29T17:44:28;18.08;;;10.13;;
17193;SDS011;8713;48.388;10.928;2023-01-29T17:45:57;17.55;;;11.60;;
17193;SDS011;8713;48.388;10.928;2023-01-29T17:47:27;19.45;;;12.27;;
17193;SDS011;8713;48.388;10.928;2023-01-29T17:48:56;18.95;;;12.57;;
17193;SDS011;8713;48.388;10.928;2023-01-29T17:50:26;20.55;;;13.68;;
17193;SDS011;8713;48.388;10.928;2023-01-29T17:51:58;21.02;;;12.50;;
17193;SDS011;8713;48.388;10.928;2023-01-29T17:53:28;20.30;;;12.38;;
17193;SDS011;8713;48.388;10.928;2023-01-29T17:54:58;20.80;;;13.13;;
17193;SDS011;8713;48.388;10.928;2023-01-29T17:56:27;19.05;;;12.82;;
17193;SDS011;8713;48.388;10.928;2023-01-29T17:57:58;19.25;;;12.32;;
17193;SDS011;8713;48.388;10.928;2023-01-29T17:59:29;13.15;;;8.23;;
17193;SDS011;8713;48.388;10.928;2023-01-29T18:01:00;15.32;;;8.80;;
17193;SDS011;8713;48.388;10.928;2023-01-29T18:02:30;17.35;;;9.15;;
17193;SDS011;8713;48.388;10.928;2023-01-29T18:04:00;15.30;;;8.35;;
17193;SDS011;8713;48.388;10.928;2023-01-29T18:05:29;17.83;;;9.73;;
17193;SDS011;8713;48.388;10.928;2023-01-29T18:06:59;13.73;;;8.05;;
17193;SDS011;8713;48.388;10.928;2023-01-29T18:08:29;14.82;;;8.68;;
17193;SDS011;8713;48.388;10.928;2023-01-29T18:10:01;10.63;;;6.82;;
17193;SDS011;8713;48.388;10.928;2023-01-29T18:11:31;15.15;;;8.45;;
17193;SDS011;8713;48.388;10.928;2023-01-29T18:13:01;16.33;;;9.23;;
17193;SDS011;8713;48.388;10.928;2023-01-29T18:14:30;16.60;;;9.70;;